Time;durP1;ratioP1;P1;durP2;ratioP2;P2;SDS_P1;SDS_P2;PMS_P1;PMS_P2;Temp;Humidity;BMP_temperature;BMP_pressure;BME280_temperature;BME280_humidity;BME280_pressure;Samples;Min_cycle;Max_cycle;Signal;HPM_P1;HPM_P2
2024/02/27 00:02:35;;;;;;;5.18;3.53;;;7.70;61.50;;;;;;5033088;28;20071;-77
2024/02/27 00:05:20;;;;;;;4.50;4.05;;;7.60;61.30;;;;;;5036469;28;20558;-77
2024/02/27 00:08:06;;;;;;;4.82;3.15;;;7.60;61.40;;;;;;5030719;28;20086;-77
2024/02/27 00:10:50;;;;;;;4.28;3.50;;;7.50;61.30;;;;;;5041867;28;20134;-77
2024/02/27 00:13:35;;;;;;;3.30;3.00;;;7.40;61.10;;;;;;5041359;28;20526;-78
2024/02/27 00:16:20;;;;;;;3.20;2.85;;;7.40;61.10;;;;;;5035378;28;20062;-78
2024/02/27 00:19:06;;;;;;;5.05;2.83;;;7.30;61.00;;;;;;5037363;28;20162;-79
2024/02/27 00:21:51;;;;;;;3.30;3.00;;;7.30;61.00;;;;;;5041474;28;20773;-78
2024/02/27 00:24:35;;;;;;;4.28;3.10;;;7.30;61.10;;;;;;5039334;28;20071;-79
2024/02/27 00:27:20;;;;;;;3.50;2.45;;;7.20;61.00;;;;;;5043506;28;20214;-79
2024/02/27 00:30:06;;;;;;;4.45;3.13;;;7.20;61.10;;;;;;5040561;28;20723;-79
2024/02/27 00:32:54;;;;;;;3.83;2.92;;;7.10;60.90;;;;;;5038011;28;20518;-79
2024/02/27 00:35:39;;;;;;;3.80;3.33;;;7.10;60.90;;;;;;5035706;28;20035;-79
2024/02/27 00:38:23;;;;;;;4.00;3.10;;;7.00;60.80;;;;;;5033822;28;20043;-79
2024/02/27 00:41:08;;;;;;;3.00;2.80;;;7.00;60.80;;;;;;5035055;28;20120;-79
2024/02/27 00:43:53;;;;;;;4.10;2.72;;;6.90;60.70;;;;;;5037062;28;20074;-80
2024/02/27 00:46:38;;;;;;;3.80;2.70;;;6.90;60.70;;;;;;5037051;28;20168;-80
2024/02/27 00:49:22;;;;;;;3.33;2.80;;;6.80;60.60;;;;;;5038164;28;20563;-80
2024/02/27 00:52:08;;;;;;;2.97;2.75;;;6.80;60.60;;;;;;5036758;28;20078;-80
2024/02/27 00:54:53;;;;;;;3.13;2.83;;;6.70;60.50;;;;;;5038599;28;20158;-80
2024/02/27 00:57:38;;;;;;;2.85;2.17;;;6.70;60.50;;;;;;5033104;28;20036;-83
2024/02/27 01:00:22;;;;;;;3.08;2.78;;;6.70;60.50;;;;;;5044041;28;20063;-83
2024/02/27 01:03:08;;;;;;;3.30;2.63;;;6.70;60.50;;;;;;5043995;28;20055;-84
2024/02/27 01:05:52;;;;;;;3.15;2.55;;;6.60;60.40;;;;;;5039569;28;20131;-79
2024/02/27 01:08:37;;;;;;;3.67;3.05;;;6.60;60.40;;;;;;5034731;28;20094;-78
2024/02/27 01:11:21;;;;;;;2.90;2.58;;;6.50;60.30;;;;;;5042713;28;20287;-78
2024/02/27 01:14:05;;;;;;;3.47;2.90;;;6.50;60.30;;;;;;5037911;28;20051;-77
2024/02/27 01:16:50;;;;;;;4.07;2.90;;;6.40;60.10;;;;;;5032562;28;20043;-78
2024/02/27 01:19:35;;;;;;;4.28;2.40;;;6.40;60.20;;;;;;5035743;28;20039;-77
2024/02/27 01:22:28;;;;;;;3.63;2.60;;;6.30;60.00;;;;;;5027116;28;20408;-78
2024/02/27 01:25:12;;;;;;;3.22;2.55;;;6.30;60.10;;;;;;5035063;28;20040;-78
2024/02/27 01:27:57;;;;;;;3.20;2.80;;;6.20;59.90;;;;;;5034740;28;20044;-77
2024/02/27 01:30:42;;;;;;;3.25;2.95;;;6.20;59.90;;;;;;5036431;28;20063;-77
2024/02/27 01:33:26;;;;;;;2.60;2.40;;;6.20;60.00;;;;;;5037446;28;20301;-79
2024/02/27 01:36:11;;;;;;;3.30;2.75;;;6.10;59.90;;;;;;5039097;28;20044;-75
2024/02/27 01:38:55;;;;;;;3.08;2.78;;;6.10;59.90;;;;;;5036394;28;20507;-75
2024/02/27 01:41:40;;;;;;;2.78;2.40;;;6.10;59.90;;;;;;5036848;28;20036;-75
2024/02/27 01:44:25;;;;;;;3.10;2.75;;;6.00;59.80;;;;;;5032400;28;20523;-75
2024/02/27 01:47:09;;;;;;;2.85;2.63;;;6.00;59.80;;;;;;5033012;28;20106;-75
2024/02/27 01:49:54;;;;;;;3.17;2.70;;;5.90;59.70;;;;;;5032155;28;20388;-75
2024/02/27 01:52:39;;;;;;;4.47;3.65;;;5.90;59.70;;;;;;5014510;28;20051;-74
2024/02/27 01:55:24;;;;;;;3.30;3.00;;;5.90;59.80;;;;;;5023891;28;20088;-76
2024/02/27 01:58:10;;;;;;;4.13;2.80;;;5.90;59.70;;;;;;5031499;28;20082;-77
2024/02/27 02:00:54;;;;;;;2.97;2.67;;;5.80;59.50;;;;;;5041607;28;20043;-77
2024/02/27 02:03:40;;;;;;;2.97;2.70;;;5.80;59.50;;;;;;5041537;28;20490;-77
2024/02/27 02:06:25;;;;;;;2.53;2.33;;;5.80;59.50;;;;;;5028035;28;20048;-77
2024/02/27 02:09:09;;;;;;;3.33;3.03;;;5.80;59.50;;;;;;5039256;28;20549;-77
2024/02/27 02:11:55;;;;;;;3.20;2.90;;;5.80;59.50;;;;;;5041532;28;20039;-79
2024/02/27 02:14:41;;;;;;;3.20;2.90;;;5.80;59.50;;;;;;5034965;28;20388;-78
2024/02/27 02:17:25;;;;;;;3.30;2.90;;;5.80;59.60;;;;;;5034636;28;20330;-77
2024/02/27 02:20:17;;;;;;;3.38;2.72;;;5.70;59.40;;;;;;5036266;28;20032;-76
2024/02/27 02:23:02;;;;;;;3.53;2.88;;;5.70;59.40;;;;;;5048507;28;20092;-77
2024/02/27 02:25:48;;;;;;;3.65;2.55;;;5.70;59.40;;;;;;5036828;28;20569;-77
2024/02/27 02:28:32;;;;;;;3.85;3.17;;;5.70;59.40;;;;;;5034518;28;20518;-77
2024/02/27 02:31:17;;;;;;;3.22;2.92;;;5.70;59.40;;;;;;5039605;28;20121;-78
2024/02/27 02:34:02;;;;;;;3.42;2.70;;;5.60;59.20;;;;;;5036645;28;20040;-78
2024/02/27 02:36:46;;;;;;;3.15;2.75;;;5.60;59.20;;;;;;5038331;28;20091;-76
2024/02/27 02:39:30;;;;;;;2.65;2.45;;;5.60;59.20;;;;;;5038203;28;20203;-77
2024/02/27 02:42:15;;;;;;;3.78;2.92;;;5.60;59.30;;;;;;5049788;28;20407;-77
2024/02/27 02:45:00;;;;;;;5.82;3.60;;;5.50;59.10;;;;;;5034744;28;20088;-77
2024/02/27 02:47:44;;;;;;;3.95;3.17;;;5.50;59.10;;;;;;5042984;28;20044;-76
2024/02/27 02:50:30;;;;;;;3.28;2.97;;;5.40;59.10;;;;;;5041026;28;20068;-78
2024/02/27 02:53:14;;;;;;;3.50;3.08;;;5.40;59.10;;;;;;5046660;28;20067;-78
2024/02/27 02:55:58;;;;;;;3.25;2.95;;;5.40;59.10;;;;;;5039671;28;20167;-78
2024/02/27 02:58:42;;;;;;;3.47;3.10;;;5.40;59.10;;;;;;5041177;28;20674;-79
2024/02/27 03:01:27;;;;;;;5.72;3.60;;;5.30;59.00;;;;;;5047059;28;20063;-78
2024/02/27 03:04:13;;;;;;;4.07;2.88;;;5.30;59.00;;;;;;5041008;28;20090;-78
2024/02/27 03:06:57;;;;;;;4.00;3.55;;;5.30;59.10;;;;;;5045662;28;20047;-79
2024/02/27 03:09:42;;;;;;;4.28;3.28;;;5.30;59.10;;;;;;5043551;28;20405;-79
2024/02/27 03:12:26;;;;;;;3.45;3.15;;;5.30;59.10;;;;;;5044907;28;20082;-79
2024/02/27 03:15:12;;;;;;;3.28;2.97;;;5.20;58.90;;;;;;5043394;28;20035;-79
2024/02/27 03:17:56;;;;;;;3.97;3.58;;;5.20;58.90;;;;;;5046741;28;20519;-79
2024/02/27 03:20:41;;;;;;;3.95;3.65;;;5.20;58.90;;;;;;5039791;28;20032;-79
2024/02/27 03:23:26;;;;;;;4.60;3.92;;;5.20;59.00;;;;;;5043534;28;20111;-79
2024/02/27 03:26:17;;;;;;;3.72;3.42;;;5.10;58.80;;;;;;5040511;28;20060;-78
2024/02/27 03:29:02;;;;;;;3.90;3.50;;;5.10;58.80;;;;;;5038812;28;20099;-79
2024/02/27 03:31:46;;;;;;;4.25;3.85;;;5.10;58.80;;;;;;5039762;28;20059;-79
2024/02/27 03:34:34;;;;;;;4.38;3.85;;;5.10;58.80;;;;;;5047918;28;20042;-78
2024/02/27 03:37:18;;;;;;;3.97;3.45;;;5.10;58.80;;;;;;5043379;28;20136;-78
2024/02/27 03:40:05;;;;;;;5.28;3.63;;;5.00;58.60;;;;;;5047279;28;20040;-78
2024/02/27 03:42:50;;;;;;;3.80;3.50;;;5.00;58.70;;;;;;5036786;28;20052;-78
2024/02/27 03:45:35;;;;;;;3.83;3.50;;;4.90;58.50;;;;;;5043250;28;20036;-79
2024/02/27 03:48:19;;;;;;;4.47;3.78;;;4.90;58.60;;;;;;5026674;28;20036;-78
2024/02/27 03:51:04;;;;;;;3.80;3.40;;;4.90;58.60;;;;;;5034660;28;20389;-79
2024/02/27 03:53:49;;;;;;;3.80;3.50;;;4.80;58.40;;;;;;5045128;28;20215;-79
2024/02/27 03:56:33;;;;;;;4.10;3.75;;;4.80;58.50;;;;;;5047865;28;20087;-79
2024/02/27 03:59:18;;;;;;;3.65;3.28;;;4.80;58.50;;;;;;5039943;28;20036;-78
2024/02/27 04:02:03;;;;;;;3.58;3.28;;;4.80;58.50;;;;;;5043523;28;20116;-78
2024/02/27 04:04:47;;;;;;;5.18;4.07;;;4.80;58.50;;;;;;5039572;28;20051;-79
2024/02/27 04:07:31;;;;;;;4.15;3.67;;;4.80;58.50;;;;;;5030215;28;20083;-79
2024/02/27 04:10:16;;;;;;;4.45;4.05;;;4.80;58.50;;;;;;5043716;28;20411;-79
2024/02/27 04:13:00;;;;;;;4.25;3.75;;;4.80;58.50;;;;;;5036250;28;20099;-79
2024/02/27 04:15:46;;;;;;;4.10;3.65;;;4.70;58.40;;;;;;5045551;28;20051;-79
2024/02/27 04:18:31;;;;;;;4.60;3.92;;;4.70;58.40;;;;;;5043829;28;20428;-79
2024/02/27 04:21:16;;;;;;;4.50;4.07;;;4.70;58.40;;;;;;5047805;28;20039;-78
2024/02/27 04:24:00;;;;;;;5.07;4.55;;;4.70;58.40;;;;;;5040108;28;20031;-78
2024/02/27 04:26:44;;;;;;;4.50;4.10;;;4.70;58.40;;;;;;5040235;28;20047;-79
2024/02/27 04:29:29;;;;;;;4.68;3.72;;;4.70;58.40;;;;;;5040118;28;20550;-79
2024/02/27 04:32:15;;;;;;;4.65;4.25;;;4.60;58.20;;;;;;5038186;28;20485;-78
2024/02/27 04:35:00;;;;;;;4.78;4.00;;;4.70;58.40;;;;;;5038397;28;20032;-77
2024/02/27 04:37:44;;;;;;;4.28;3.88;;;4.60;58.30;;;;;;5037712;28;20040;-77
2024/02/27 04:40:28;;;;;;;4.50;3.92;;;4.60;58.30;;;;;;5052565;28;20396;-78
2024/02/27 04:43:13;;;;;;;5.22;4.15;;;4.60;58.30;;;;;;5043488;28;20039;-77
2024/02/27 04:45:57;;;;;;;4.15;3.80;;;4.50;58.20;;;;;;5039820;28;20067;-78
2024/02/27 04:48:42;;;;;;;4.10;3.70;;;4.50;58.20;;;;;;5040206;28;20031;-77
2024/02/27 04:51:26;;;;;;;5.72;4.38;;;4.50;58.20;;;;;;5035801;28;20154;-77
2024/02/27 04:54:11;;;;;;;5.30;4.78;;;4.50;58.30;;;;;;5043449;28;20533;-77
2024/02/27 04:56:55;;;;;;;5.78;4.80;;;4.50;58.20;;;;;;5044048;28;20070;-78
2024/02/27 04:59:40;;;;;;;4.30;3.90;;;4.50;58.20;;;;;;5042406;28;20094;-77
2024/02/27 05:02:24;;;;;;;3.95;3.53;;;4.50;58.20;;;;;;5040543;28;20047;-77
2024/02/27 05:05:09;;;;;;;4.57;3.92;;;4.50;58.20;;;;;;5041160;28;20404;-78
2024/02/27 05:07:53;;;;;;;6.13;4.25;;;4.50;58.20;;;;;;5043687;28;20075;-78
2024/02/27 05:10:38;;;;;;;4.80;4.22;;;4.50;58.20;;;;;;5049184;28;20055;-77
2024/02/27 05:13:23;;;;;;;4.80;4.40;;;4.40;58.00;;;;;;5041628;28;20039;-78
2024/02/27 05:16:08;;;;;;;4.95;4.38;;;4.50;58.20;;;;;;5040170;28;20526;-77
2024/02/27 05:18:53;;;;;;;5.03;4.43;;;4.50;58.20;;;;;;5042230;28;20055;-77
2024/02/27 05:21:37;;;;;;;4.53;4.10;;;4.50;58.20;;;;;;5037218;28;20055;-77
2024/02/27 05:24:22;;;;;;;5.95;4.53;;;4.40;58.00;;;;;;5043999;28;20047;-78
2024/02/27 05:27:06;;;;;;;6.82;4.65;;;4.40;58.00;;;;;;5045964;28;20609;-77
2024/02/27 05:29:50;;;;;;;5.20;4.70;;;4.40;58.00;;;;;;5041800;28;20047;-77
2024/02/27 05:32:37;;;;;;;4.72;4.30;;;4.40;58.00;;;;;;5044372;28;20052;-78
2024/02/27 05:35:22;;;;;;;5.07;4.57;;;4.40;58.00;;;;;;5029564;28;20082;-78
2024/02/27 05:38:06;;;;;;;4.80;4.30;;;4.40;58.00;;;;;;5040296;28;20514;-78
2024/02/27 05:40:51;;;;;;;5.50;4.88;;;4.40;58.00;;;;;;5041190;28;20094;-78
2024/02/27 05:43:36;;;;;;;5.25;4.75;;;4.40;58.00;;;;;;5046389;28;20808;-78
2024/02/27 05:46:20;;;;;;;5.03;4.53;;;4.40;58.00;;;;;;5037694;28;20519;-77
2024/02/27 05:49:05;;;;;;;6.00;4.93;;;4.40;58.00;;;;;;5034630;28;20079;-77
2024/02/27 05:51:49;;;;;;;4.70;4.30;;;4.30;57.80;;;;;;5032378;28;20051;-76
2024/02/27 05:54:34;;;;;;;5.68;4.93;;;4.40;58.00;;;;;;5040320;28;20412;-77
2024/02/27 05:57:19;;;;;;;8.43;5.20;;;4.40;58.00;;;;;;5039599;28;20071;-76
2024/02/27 06:00:05;;;;;;;5.95;4.57;;;4.40;58.00;;;;;;5040548;28;20091;-77
2024/02/27 06:02:49;;;;;;;5.15;4.53;;;4.40;58.00;;;;;;5034105;28;20373;-78
2024/02/27 06:05:34;;;;;;;4.57;4.18;;;4.30;57.80;;;;;;5027743;28;20087;-78
2024/02/27 06:08:18;;;;;;;5.50;4.25;;;4.40;58.00;;;;;;5039520;28;20124;-78
2024/02/27 06:11:03;;;;;;;5.22;4.72;;;4.40;58.00;;;;;;5034276;28;20048;-78
2024/02/27 06:13:48;;;;;;;4.95;4.50;;;4.40;57.90;;;;;;5033336;28;20219;-77
2024/02/27 06:16:33;;;;;;;5.47;4.90;;;4.40;57.90;;;;;;5034117;28;20496;-77
2024/02/27 06:19:19;;;;;;;5.22;4.72;;;4.40;57.90;;;;;;5038783;28;20636;-79
2024/02/27 06:22:14;;;;;;;5.90;5.10;;;4.40;57.90;;;;;;5039156;28;20870;-79
2024/02/27 06:24:59;;;;;;;6.20;5.60;;;4.40;57.90;;;;;;5036204;28;20080;-79
2024/02/27 06:27:44;;;;;;;5.20;4.70;;;4.40;57.80;;;;;;5036075;28;20047;-79
2024/02/27 06:30:28;;;;;;;5.70;5.00;;;4.30;57.70;;;;;;5029901;28;20080;-79
2024/02/27 06:33:13;;;;;;;5.82;5.28;;;4.40;57.80;;;;;;5039530;28;20056;-80
2024/02/27 06:35:58;;;;;;;5.82;5.22;;;4.40;57.80;;;;;;5035410;28;20079;-77
2024/02/27 06:38:42;;;;;;;5.53;4.95;;;4.30;57.70;;;;;;5025859;28;20554;-78
2024/02/27 06:41:26;;;;;;;7.13;4.20;;;4.40;57.80;;;;;;5035374;28;20043;-79
2024/02/27 06:44:11;;;;;;;5.70;5.20;;;4.30;57.70;;;;;;5042145;28;20295;-79
2024/02/27 06:46:55;;;;;;;5.85;4.93;;;4.30;57.80;;;;;;5037063;28;20152;-78
2024/02/27 06:49:40;;;;;;;5.35;4.85;;;4.40;58.10;;;;;;5035317;28;20067;-82
2024/02/27 06:52:25;;;;;;;5.20;4.70;;;4.40;58.20;;;;;;5036725;28;20051;-79
2024/02/27 06:55:09;;;;;;;6.07;4.97;;;4.50;58.50;;;;;;5035557;28;20041;-79
2024/02/27 06:57:54;;;;;;;5.90;5.20;;;4.50;58.60;;;;;;5037164;28;20135;-79
2024/02/27 07:00:38;;;;;;;5.93;5.20;;;4.60;58.90;;;;;;5039360;28;20419;-78
2024/02/27 07:03:24;;;;;;;6.30;5.22;;;4.60;58.90;;;;;;5040144;28;20044;-79
2024/02/27 07:06:08;;;;;;;6.07;5.50;;;4.60;58.90;;;;;;5029084;28;20055;-79
2024/02/27 07:08:53;;;;;;;6.53;5.65;;;4.60;58.90;;;;;;5037278;28;20114;-79
2024/02/27 07:11:38;;;;;;;5.43;4.82;;;4.60;58.90;;;;;;5040136;28;20044;-79
2024/02/27 07:14:23;;;;;;;5.28;4.78;;;4.60;58.90;;;;;;5032474;28;20732;-78
2024/02/27 07:17:08;;;;;;;6.43;5.05;;;4.60;59.50;;;;;;5041650;28;20048;-79
2024/02/27 07:19:53;;;;;;;9.75;7.25;;;4.60;58.90;;;;;;5033441;28;20087;-81
2024/02/27 07:22:38;;;;;;;21.65;8.07;;;4.60;58.90;;;;;;5018127;28;20126;-79
2024/02/27 07:25:22;;;;;;;17.63;7.15;;;4.60;59.10;;;;;;5031169;28;20036;-81
2024/02/27 07:28:07;;;;;;;16.13;7.40;;;4.70;59.40;;;;;;5031741;28;20611;-80
2024/02/27 07:30:51;;;;;;;16.30;7.90;;;4.80;59.70;;;;;;5041298;28;20240;-80
2024/02/27 07:33:36;;;;;;;12.98;7.78;;;4.80;59.70;;;;;;5029934;28;20056;-80
2024/02/27 07:36:21;;;;;;;13.23;7.43;;;4.80;59.80;;;;;;5022147;28;20052;-79
2024/02/27 07:39:05;;;;;;;13.20;7.05;;;4.90;60.00;;;;;;5028611;28;20837;-79
2024/02/27 07:41:50;;;;;;;12.80;6.60;;;4.90;60.00;;;;;;5025242;28;20067;-79
2024/02/27 07:44:34;;;;;;;10.00;5.97;;;4.90;60.00;;;;;;5029030;28;20151;-81
2024/02/27 07:47:20;;;;;;;13.90;7.63;;;4.90;60.10;;;;;;5009729;28;20615;-80
2024/02/27 07:50:05;;;;;;;11.82;7.07;;;4.90;60.00;;;;;;5041485;28;20039;-78
2024/02/27 07:52:50;;;;;;;9.68;6.78;;;4.90;60.00;;;;;;5038329;28;20120;-79
2024/02/27 07:55:34;;;;;;;11.95;6.20;;;4.90;60.00;;;;;;5020779;28;20040;-80
2024/02/27 07:58:19;;;;;;;6.72;5.85;;;5.00;60.20;;;;;;5020622;28;20044;-79
2024/02/27 08:01:03;;;;;;;11.38;6.25;;;5.00;60.20;;;;;;5042690;28;20105;-79
2024/02/27 08:03:48;;;;;;;8.98;6.18;;;5.00;60.10;;;;;;5039466;28;20048;-80
2024/02/27 08:06:32;;;;;;;9.63;6.40;;;5.00;60.00;;;;;;5032775;28;20048;-79
2024/02/27 08:09:17;;;;;;;7.35;6.18;;;5.10;60.10;;;;;;5038683;28;20553;-78
2024/02/27 08:12:02;;;;;;;7.10;6.40;;;5.10;60.10;;;;;;5042256;28;20080;-79
2024/02/27 08:14:46;;;;;;;11.55;6.53;;;5.20;60.20;;;;;;5036802;28;20041;-79
2024/02/27 08:17:31;;;;;;;8.90;6.60;;;5.20;60.10;;;;;;5042126;28;20120;-77
2024/02/27 08:20:16;;;;;;;6.72;5.88;;;5.30;60.20;;;;;;5035487;28;20405;-78
2024/02/27 08:23:01;;;;;;;7.63;6.90;;;5.30;60.10;;;;;;5030135;28;20040;-77
2024/02/27 08:25:46;;;;;;;7.25;6.35;;;5.30;60.10;;;;;;5038062;28;20622;-79
2024/02/27 08:28:30;;;;;;;6.88;6.18;;;5.40;60.10;;;;;;5044174;28;20392;-79
2024/02/27 08:31:15;;;;;;;8.80;7.43;;;5.40;60.00;;;;;;5031824;28;20086;-79
2024/02/27 08:34:04;;;;;;;8.73;7.40;;;5.50;60.10;;;;;;5039027;28;20139;-78
2024/02/27 08:36:49;;;;;;;9.60;7.43;;;5.50;60.00;;;;;;5036623;28;20263;-77
2024/02/27 08:39:33;;;;;;;7.55;6.78;;;5.60;60.10;;;;;;5041932;28;20047;-82
2024/02/27 08:42:17;;;;;;;9.30;6.85;;;5.50;59.90;;;;;;5033517;28;20531;-79
2024/02/27 08:45:02;;;;;;;7.95;7.15;;;5.60;60.00;;;;;;5023396;28;20040;-79
2024/02/27 08:47:46;;;;;;;7.95;7.22;;;5.70;60.10;;;;;;5036712;28;20518;-79
2024/02/27 08:50:31;;;;;;;9.25;7.00;;;5.70;60.10;;;;;;5042647;28;20044;-79
2024/02/27 08:53:15;;;;;;;7.72;6.90;;;5.70;60.10;;;;;;5036913;28;20536;-79
2024/02/27 08:56:00;;;;;;;11.18;7.25;;;5.80;60.10;;;;;;5032134;28;20561;-79
2024/02/27 08:58:44;;;;;;;7.80;7.00;;;5.90;60.30;;;;;;5033413;28;20087;-79
2024/02/27 09:01:29;;;;;;;8.55;7.43;;;5.90;60.20;;;;;;5024658;28;20086;-79
2024/02/27 09:04:14;;;;;;;8.02;6.97;;;6.00;60.30;;;;;;5040783;28;20036;-81
2024/02/27 09:06:59;;;;;;;8.10;7.30;;;6.00;60.70;;;;;;5031843;28;20159;-78
2024/02/27 09:09:44;;;;;;;8.18;7.32;;;6.10;60.40;;;;;;5035779;28;20114;-78
2024/02/27 09:12:29;;;;;;;8.85;7.95;;;6.10;60.30;;;;;;5030252;28;20048;-78
2024/02/27 09:15:13;;;;;;;8.35;7.60;;;6.20;60.40;;;;;;5016770;28;20040;-81
2024/02/27 09:17:58;;;;;;;8.70;7.88;;;6.20;60.30;;;;;;5028505;28;20449;-80
2024/02/27 09:20:43;;;;;;;9.18;8.05;;;6.40;60.60;;;;;;5030229;28;20051;-78
2024/02/27 09:23:28;;;;;;;8.82;7.88;;;6.40;60.50;;;;;;5037549;28;20478;-80
2024/02/27 09:26:12;;;;;;;9.32;8.05;;;6.50;60.50;;;;;;5026509;28;20051;-81
2024/02/27 09:28:57;;;;;;;7.97;7.20;;;6.60;60.60;;;;;;5035764;28;20094;-80
2024/02/27 09:31:45;;;;;;;8.27;7.47;;;6.70;60.70;;;;;;5026217;28;20577;-81
2024/02/27 09:34:30;;;;;;;8.27;7.47;;;6.80;60.80;;;;;;5025420;28;20101;-80
2024/02/27 09:37:15;;;;;;;8.90;7.82;;;6.90;61.30;;;;;;5032675;28;20047;-81
2024/02/27 09:39:59;;;;;;;8.07;7.28;;;7.00;60.80;;;;;;5030619;28;20374;-80
2024/02/27 09:42:51;;;;;;;8.32;7.40;;;7.20;61.00;;;;;;5027554;28;20432;-80
2024/02/27 09:45:36;;;;;;;7.82;7.05;;;7.30;61.00;;;;;;5030931;28;20192;-80
2024/02/27 09:48:28;;;;;;;7.97;7.03;;;7.50;61.10;;;;;;5028936;28;20040;-80
2024/02/27 09:51:15;;;;;;;9.88;7.90;;;7.60;60.90;;;;;;5037158;28;20075;-80
2024/02/27 09:54:00;;;;;;;9.13;7.30;;;7.70;60.80;;;;;;5025476;28;20083;-80
2024/02/27 09:56:46;;;;;;;7.35;6.65;;;7.80;60.90;;;;;;5032464;28;20724;-81
2024/02/27 09:59:31;;;;;;;8.75;7.43;;;7.90;60.90;;;;;;5035972;28;20120;-80
2024/02/27 10:02:16;;;;;;;9.43;7.68;;;7.90;60.90;;;;;;5035832;28;20207;-79
2024/02/27 10:05:02;;;;;;;7.63;6.93;;;7.90;60.90;;;;;;5033283;28;20128;-81
2024/02/27 10:07:51;;;;;;;7.63;6.80;;;8.00;61.10;;;;;;5035386;28;20478;-80
2024/02/27 10:10:37;;;;;;;7.90;7.07;;;8.00;61.00;;;;;;5031071;28;20045;-79
2024/02/27 10:13:22;;;;;;;7.57;6.88;;;8.10;61.10;;;;;;5033799;28;20309;-78
2024/02/27 10:16:06;;;;;;;8.63;7.72;;;8.20;61.20;;;;;;5013259;28;20552;-78
2024/02/27 10:18:51;;;;;;;8.10;7.30;;;8.30;61.20;;;;;;5042355;28;20048;-79
2024/02/27 10:21:36;;;;;;;9.27;6.93;;;8.40;61.30;;;;;;5026590;28;20036;-79
2024/02/27 10:24:21;;;;;;;7.78;6.97;;;8.50;61.40;;;;;;5037768;28;20471;-79
2024/02/27 10:27:07;;;;;;;7.40;6.70;;;8.50;61.30;;;;;;5036671;28;20071;-78
2024/02/27 10:29:52;;;;;;;7.55;6.85;;;8.60;61.40;;;;;;5037078;28;20519;-79
2024/02/27 10:32:36;;;;;;;7.30;6.68;;;8.70;61.40;;;;;;5034116;28;20551;-79
2024/02/27 10:35:23;;;;;;;7.05;6.45;;;8.80;61.40;;;;;;5036579;28;20117;-79
2024/02/27 10:38:15;;;;;;;8.52;7.65;;;8.90;61.40;;;;;;5035118;28;20052;-78
2024/02/27 10:41:00;;;;;;;7.22;6.53;;;8.90;61.20;;;;;;5029822;28;20107;-79
2024/02/27 10:43:45;;;;;;;8.00;6.38;;;9.10;61.50;;;;;;5048758;28;20042;-78
2024/02/27 10:46:30;;;;;;;7.97;6.57;;;9.10;61.30;;;;;;5040461;28;20047;-78
2024/02/27 10:49:16;;;;;;;7.35;6.65;;;9.20;61.40;;;;;;5042306;28;20516;-79
2024/02/27 10:52:01;;;;;;;6.68;6.07;;;9.20;61.20;;;;;;5034957;28;20317;-79
2024/02/27 10:54:47;;;;;;;9.30;5.80;;;9.20;61.10;;;;;;5023692;28;20416;-80
2024/02/27 10:57:33;;;;;;;7.40;5.97;;;9.30;61.30;;;;;;5034782;28;20104;-78
2024/02/27 11:00:17;;;;;;;5.93;5.32;;;9.30;61.30;;;;;;5035374;28;20090;-78
2024/02/27 11:03:07;;;;;;;7.43;5.82;;;9.30;61.20;;;;;;5034495;28;20052;-78
2024/02/27 11:05:52;;;;;;;5.15;4.65;;;9.40;61.40;;;;;;5039389;28;20072;-78
2024/02/27 11:08:37;;;;;;;7.03;5.07;;;9.40;61.30;;;;;;5041728;28;20048;-78
2024/02/27 11:11:23;;;;;;;7.72;4.88;;;9.40;61.20;;;;;;5035999;28;20048;-78
2024/02/27 11:14:12;;;;;;;5.47;4.97;;;9.40;61.20;;;;;;5041448;28;20048;-78
2024/02/27 11:17:05;;;;;;;6.10;4.25;;;9.50;61.30;;;;;;5023293;28;20044;-78
2024/02/27 11:19:51;;;;;;;6.53;4.82;;;9.50;61.20;;;;;;5031193;28;20059;-79
2024/02/27 11:22:38;;;;;;;5.03;4.13;;;9.50;61.20;;;;;;5034331;28;20124;-78
2024/02/27 11:25:23;;;;;;;4.40;4.00;;;9.50;61.10;;;;;;5035161;28;20047;-78
2024/02/27 11:28:09;;;;;;;4.35;3.95;;;9.50;61.00;;;;;;5038934;28;20068;-78
2024/02/27 11:30:53;;;;;;;5.13;3.60;;;9.60;61.10;;;;;;5035663;28;20072;-78
2024/02/27 11:33:48;;;;;;;4.30;3.67;;;9.70;61.30;;;;;;5036028;28;20060;-78
2024/02/27 11:36:33;;;;;;;5.28;3.92;;;9.70;61.20;;;;;;5030638;28;20048;-78
2024/02/27 11:39:30;;;;;;;4.25;3.85;;;9.70;61.10;;;;;;5033096;28;20036;-78
2024/02/27 11:42:41;;;;;;;3.42;3.13;;;9.80;61.20;;;;;;5044305;28;20087;-78
2024/02/27 11:45:28;;;;;;;3.50;3.20;;;9.90;61.20;;;;;;5035925;28;20924;-78
2024/02/27 11:48:13;;;;;;;3.92;3.00;;;10.00;61.20;;;;;;5040810;28;20136;-78
2024/02/27 11:50:57;;;;;;;3.50;3.20;;;10.20;61.30;;;;;;5035852;28;20087;-78
2024/02/27 11:53:43;;;;;;;4.75;3.20;;;10.30;61.20;;;;;;5029874;28;20183;-79
2024/02/27 11:56:27;;;;;;;4.10;2.97;;;10.50;61.20;;;;;;5035710;28;20120;-79
2024/02/27 11:59:12;;;;;;;3.38;3.08;;;10.60;61.00;;;;;;5030694;28;20489;-79
2024/02/27 12:02:03;;;;;;;5.75;3.00;;;10.70;60.90;;;;;;5040289;28;20086;-80
2024/02/27 12:04:48;;;;;;;3.53;2.80;;;10.90;61.00;;;;;;5040361;28;20064;-79
2024/02/27 12:07:33;;;;;;;3.50;3.20;;;11.00;60.90;;;;;;5031861;28;20071;-80
2024/02/27 12:10:19;;;;;;;2.97;2.38;;;11.10;60.80;;;;;;5038410;28;20106;-80
2024/02/27 12:13:04;;;;;;;2.88;2.35;;;11.30;61.00;;;;;;5030876;28;20040;-78
2024/02/27 12:15:58;;;;;;;4.28;2.90;;;11.40;60.90;;;;;;5027525;28;20162;-79
2024/02/27 12:18:43;;;;;;;2.38;2.00;;;11.50;60.80;;;;;;5035704;28;20424;-78
2024/02/27 12:21:31;;;;;;;3.10;1.98;;;11.60;60.80;;;;;;5027774;28;20357;-78
2024/02/27 12:24:18;;;;;;;3.72;2.42;;;11.70;60.80;;;;;;5033051;28;20051;-77
2024/02/27 12:27:03;;;;;;;2.38;2.13;;;11.80;60.70;;;;;;5040994;28;20518;-80
2024/02/27 12:29:48;;;;;;;2.75;2.10;;;11.90;60.70;;;;;;5045221;28;20543;-81
2024/02/27 12:32:33;;;;;;;3.03;2.45;;;12.00;60.70;;;;;;5042278;28;20860;-81
2024/02/27 12:35:18;;;;;;;2.08;1.88;;;12.10;60.50;;;;;;5024304;28;20423;-79
2024/02/27 12:38:03;;;;;;;2.88;2.00;;;12.30;60.60;;;;;;5029739;28;20629;-80
2024/02/27 12:40:48;;;;;;;2.72;2.53;;;12.40;60.40;;;;;;5030839;28;20060;-78
2024/02/27 12:43:32;;;;;;;2.35;2.08;;;12.50;60.30;;;;;;5034455;28;20095;-80
2024/02/27 12:46:20;;;;;;;2.13;1.60;;;12.60;60.30;;;;;;5043167;28;20454;-80
2024/02/27 12:49:05;;;;;;;2.00;1.80;;;12.70;60.20;;;;;;5037601;28;20059;-79
2024/02/27 12:51:50;;;;;;;4.20;2.10;;;12.80;60.20;;;;;;5040408;28;20090;-80
2024/02/27 12:54:35;;;;;;;2.20;1.80;;;13.00;60.30;;;;;;5047109;28;20032;-80
2024/02/27 12:57:20;;;;;;;2.72;2.10;;;13.00;60.00;;;;;;5036590;28;20102;-79
2024/02/27 13:00:07;;;;;;;3.15;1.85;;;13.20;60.00;;;;;;5034089;28;20044;-80
2024/02/27 13:02:54;;;;;;;2.55;1.30;;;13.30;59.90;;;;;;5021011;28;20067;-81
2024/02/27 13:05:38;;;;;;;2.97;2.05;;;13.40;59.90;;;;;;5031887;28;20048;-80
2024/02/27 13:08:23;;;;;;;2.28;1.73;;;13.50;59.80;;;;;;5028385;28;20357;-80
2024/02/27 13:11:11;;;;;;;3.45;2.03;;;13.60;59.70;;;;;;5017167;28;20098;-81
2024/02/27 13:13:55;;;;;;;3.42;2.00;;;13.70;59.70;;;;;;5031133;28;20476;-80
2024/02/27 13:16:40;;;;;;;2.65;1.73;;;13.80;59.70;;;;;;5016026;28;20111;-79
2024/02/27 13:19:25;;;;;;;2.47;1.92;;;13.80;59.50;;;;;;5028836;28;20250;-80
2024/02/27 13:22:09;;;;;;;2.08;1.77;;;13.90;59.40;;;;;;5032713;28;20105;-80
2024/02/27 13:24:54;;;;;;;2.70;2.47;;;14.00;59.30;;;;;;5026787;28;20048;-80
2024/02/27 13:27:38;;;;;;;3.70;1.63;;;14.10;59.30;;;;;;5033999;28;20056;-77
2024/02/27 13:30:23;;;;;;;2.28;1.60;;;14.10;59.20;;;;;;5035406;28;20060;-80
2024/02/27 13:33:08;;;;;;;1.92;1.33;;;14.10;59.10;;;;;;5037296;28;20064;-77
2024/02/27 13:35:53;;;;;;;3.03;1.38;;;14.10;59.10;;;;;;5040246;28;20087;-79
2024/02/27 13:38:37;;;;;;;2.92;1.70;;;14.10;59.00;;;;;;5038691;28;20056;-78
2024/02/27 13:41:23;;;;;;;3.13;1.65;;;14.10;59.00;;;;;;5027077;28;20408;-78
2024/02/27 13:44:08;;;;;;;3.13;1.48;;;14.00;58.80;;;;;;5035028;28;20105;-78
2024/02/27 13:46:53;;;;;;;2.88;1.80;;;13.90;58.70;;;;;;5038845;28;20060;-78
2024/02/27 13:49:37;;;;;;;2.80;1.95;;;13.90;58.80;;;;;;5018727;28;20033;-78
2024/02/27 13:52:21;;;;;;;2.40;1.60;;;13.80;58.70;;;;;;5034004;28;20176;-81
2024/02/27 13:55:06;;;;;;;1.90;1.50;;;13.70;58.50;;;;;;5031836;28;20036;-78
2024/02/27 13:57:51;;;;;;;2.22;1.50;;;13.70;58.60;;;;;;5038839;28;20784;-79
2024/02/27 14:00:35;;;;;;;2.28;1.60;;;13.70;58.60;;;;;;5034008;28;20044;-78
2024/02/27 14:03:20;;;;;;;2.78;1.85;;;13.70;58.60;;;;;;5029862;28;20048;-78
2024/02/27 14:06:05;;;;;;;2.08;1.90;;;13.60;58.40;;;;;;5028223;28;20040;-80
2024/02/27 14:08:49;;;;;;;3.53;1.55;;;13.60;58.40;;;;;;5036217;28;20099;-78
2024/02/27 14:11:34;;;;;;;3.00;1.60;;;13.60;58.40;;;;;;5031182;28;20500;-78
2024/02/27 14:14:18;;;;;;;2.85;1.67;;;13.60;58.40;;;;;;5035634;28;20047;-78
2024/02/27 14:17:03;;;;;;;1.80;1.38;;;13.60;58.30;;;;;;5037328;28;20075;-78
2024/02/27 14:19:47;;;;;;;2.35;1.88;;;13.50;58.10;;;;;;5030146;28;20511;-80
2024/02/27 14:22:32;;;;;;;3.03;2.00;;;13.50;58.10;;;;;;5033535;28;20098;-79
2024/02/27 14:25:17;;;;;;;2.55;1.60;;;13.50;58.10;;;;;;5030076;28;20274;-79
2024/02/27 14:28:02;;;;;;;2.00;1.80;;;13.40;57.90;;;;;;5027469;28;20048;-79
2024/02/27 14:30:46;;;;;;;2.22;1.98;;;13.40;57.90;;;;;;5033397;28;20091;-79